sensor_id;sensor_type;location;lat;lon;timestamp;pressure;altitude;pressure_sealevel;temperature;humidity
31225;BME280;17847;31.524;74.366;2023-07-28T00:00:06;97531.34;;;27.73;100.00
31225;BME280;17847;31.524;74.366;2023-07-28T00:02:40;97538.84;;;27.76;100.00
31225;BME280;17847;31.524;74.366;2023-07-28T00:05:10;97535.66;;;27.74;100.00
31225;BME280;17847;31.524;74.366;2023-07-28T00:07:39;97532.47;;;27.72;100.00
31225;BME280;17847;31.524;74.366;2023-07-28T00:10:09;97533.28;;;27.73;100.00
31225;BME280;17847;31.524;74.366;2023-07-28T00:12:38;97528.94;;;27.72;100.00
31225;BME280;17847;31.524;74.366;2023-07-28T00:15:07;97531.03;;;27.75;100.00
31225;BME280;17847;31.524;74.366;2023-07-28T00:17:37;97534.19;;;27.77;100.00
31225;BME280;17847;31.524;74.366;2023-07-28T00:20:07;97529.06;;;27.75;100.00
31225;BME280;17847;31.524;74.366;2023-07-28T00:22:37;97517.88;;;27.77;100.00
31225;BME280;17847;31.524;74.366;2023-07-28T00:25:07;97517.53;;;27.78;100.00
31225;BME280;17847;31.524;74.366;2023-07-28T00:27:36;97529.81;;;27.84;100.00
31225;BME280;17847;31.524;74.366;2023-07-28T00:30:06;97530.47;;;27.81;100.00
31225;BME280;17847;31.524;74.366;2023-07-28T00:32:35;97525.63;;;27.87;100.00
31225;BME280;17847;31.524;74.366;2023-07-28T00:35:05;97521.44;;;27.89;100.00
31225;BME280;17847;31.524;74.366;2023-07-28T00:37:34;97526.09;;;27.89;100.00
31225;BME280;17847;31.524;74.366;2023-07-28T00:40:04;97533.59;;;27.92;100.00
31225;BME280;17847;31.524;74.366;2023-07-28T00:42:33;97544.59;;;27.95;100.00
31225;BME280;17847;31.524;74.366;2023-07-28T00:45:04;97544.41;;;28.00;100.00
31225;BME280;17847;31.524;74.366;2023-07-28T00:47:35;97553.81;;;28.03;100.00
31225;BME280;17847;31.524;74.366;2023-07-28T00:50:05;97553.81;;;28.03;100.00
31225;BME280;17847;31.524;74.366;2023-07-28T00:52:35;97566.25;;;28.12;100.00
31225;BME280;17847;31.524;74.366;2023-07-28T00:55:06;97570.22;;;28.15;100.00
31225;BME280;17847;31.524;74.366;2023-07-28T00:57:36;97570.84;;;28.21;100.00
31225;BME280;17847;31.524;74.366;2023-07-28T01:00:09;97569.81;;;28.25;100.00
31225;BME280;17847;31.524;74.366;2023-07-28T01:02:39;97570.63;;;28.26;100.00
31225;BME280;17847;31.524;74.366;2023-07-28T01:05:09;97571.66;;;28.33;100.00
31225;BME280;17847;31.524;74.366;2023-07-28T01:07:49;97570.53;;;28.34;100.00
31225;BME280;17847;31.524;74.366;2023-07-28T01:10:30;97571.94;;;28.40;100.00
31225;BME280;17847;31.524;74.366;2023-07-28T01:13:00;97570.13;;;28.44;100.00
31225;BME280;17847;31.524;74.366;2023-07-28T01:15:29;97571.50;;;28.50;100.00
31225;BME280;17847;31.524;74.366;2023-07-28T01:17:59;97582.97;;;28.56;100.00
31225;BME280;17847;31.524;74.366;2023-07-28T01:20:30;97581.53;;;28.58;100.00
31225;BME280;17847;31.524;74.366;2023-07-28T01:23:18;97588.34;;;28.65;100.00
31225;BME280;17847;31.524;74.366;2023-07-28T01:26:09;97578.06;;;28.70;100.00
31225;BME280;17847;31.524;74.366;2023-07-28T01:28:40;97581.56;;;28.71;100.00
31225;BME280;17847;31.524;74.366;2023-07-28T01:31:10;97590.34;;;28.76;100.00
31225;BME280;17847;31.524;74.366;2023-07-28T01:33:40;97600.88;;;28.78;100.00
31225;BME280;17847;31.524;74.366;2023-07-28T01:36:09;97594.78;;;28.81;100.00
31225;BME280;17847;31.524;74.366;2023-07-28T01:38:38;97597.72;;;28.88;100.00
31225;BME280;17847;31.524;74.366;2023-07-28T01:41:08;97584.56;;;28.90;100.00
31225;BME280;17847;31.524;74.366;2023-07-28T01:43:37;97594.00;;;28.92;100.00
31225;BME280;17847;31.524;74.366;2023-07-28T01:46:07;97597.97;;;28.95;100.00
31225;BME280;17847;31.524;74.366;2023-07-28T01:48:37;97587.53;;;28.97;100.00
31225;BME280;17847;31.524;74.366;2023-07-28T01:51:07;97591.03;;;28.97;100.00
31225;BME280;17847;31.524;74.366;2023-07-28T01:53:36;97582.97;;;29.01;100.00
31225;BME280;17847;31.524;74.366;2023-07-28T01:56:06;97582.28;;;29.04;100.00
31225;BME280;17847;31.524;74.366;2023-07-28T01:58:35;97589.00;;;29.19;100.00
31225;BME280;17847;31.524;74.366;2023-07-28T02:01:04;97593.34;;;29.32;100.00
31225;BME280;17847;31.524;74.366;2023-07-28T02:03:33;97589.72;;;29.40;100.00
31225;BME280;17847;31.524;74.366;2023-07-28T02:06:03;97600.72;;;29.43;100.00
31225;BME280;17847;31.524;74.366;2023-07-28T02:08:32;97597.66;;;29.45;100.00
31225;BME280;17847;31.524;74.366;2023-07-28T02:11:02;97607.53;;;29.62;100.00
31225;BME280;17847;31.524;74.366;2023-07-28T02:13:33;97600.94;;;29.75;100.00
31225;BME280;17847;31.524;74.366;2023-07-28T02:16:04;97613.53;;;30.04;100.00
31225;BME280;17847;31.524;74.366;2023-07-28T02:18:33;97608.47;;;30.18;100.00
31225;BME280;17847;31.524;74.366;2023-07-28T02:21:02;97598.03;;;30.08;100.00
31225;BME280;17847;31.524;74.366;2023-07-28T02:23:32;97609.69;;;29.93;100.00
31225;BME280;17847;31.524;74.366;2023-07-28T02:26:01;97605.03;;;29.81;100.00
31225;BME280;17847;31.524;74.366;2023-07-28T02:28:30;97619.38;;;29.90;100.00
31225;BME280;17847;31.524;74.366;2023-07-28T02:30:59;97625.38;;;29.71;100.00
31225;BME280;17847;31.524;74.366;2023-07-28T02:33:29;97629.94;;;29.67;100.00
31225;BME280;17847;31.524;74.366;2023-07-28T02:35:58;97624.50;;;29.55;100.00
31225;BME280;17847;31.524;74.366;2023-07-28T02:38:28;97625.41;;;29.59;100.00
31225;BME280;17847;31.524;74.366;2023-07-28T02:40:58;97626.41;;;29.67;100.00
31225;BME280;17847;31.524;74.366;2023-07-28T02:43:27;97628.81;;;29.68;100.00
31225;BME280;17847;31.524;74.366;2023-07-28T02:45:57;97623.91;;;29.62;100.00
31225;BME280;17847;31.524;74.366;2023-07-28T02:48:27;97629.50;;;29.53;100.00
31225;BME280;17847;31.524;74.366;2023-07-28T02:50:56;97625.41;;;29.59;100.00
31225;BME280;17847;31.524;74.366;2023-07-28T02:53:25;97631.44;;;29.53;100.00
31225;BME280;17847;31.524;74.366;2023-07-28T02:55:56;97635.88;;;29.45;100.00
31225;BME280;17847;31.524;74.366;2023-07-28T02:58:35;97630.88;;;29.47;100.00
31225;BME280;17847;31.524;74.366;2023-07-28T03:01:05;97634.50;;;29.39;100.00
31225;BME280;17847;31.524;74.366;2023-07-28T03:03:37;97632.72;;;29.43;100.00
31225;BME280;17847;31.524;74.366;2023-07-28T03:06:06;97641.22;;;29.41;100.00
31225;BME280;17847;31.524;74.366;2023-07-28T03:08:37;97639.06;;;29.47;100.00
31225;BME280;17847;31.524;74.366;2023-07-28T03:11:33;97649.88;;;29.56;100.00
31225;BME280;17847;31.524;74.366;2023-07-28T03:14:03;97653.72;;;29.55;100.00
31225;BME280;17847;31.524;74.366;2023-07-28T03:16:33;97660.22;;;29.50;100.00
31225;BME280;17847;31.524;74.366;2023-07-28T03:19:02;97650.53;;;29.53;100.00
31225;BME280;17847;31.524;74.366;2023-07-28T03:21:32;97658.03;;;29.68;100.00
31225;BME280;17847;31.524;74.366;2023-07-28T03:24:05;97655.06;;;29.85;100.00
31225;BME280;17847;31.524;74.366;2023-07-28T03:26:35;97654.84;;;30.02;100.00
31225;BME280;17847;31.524;74.366;2023-07-28T03:29:05;97653.09;;;30.10;100.00
31225;BME280;17847;31.524;74.366;2023-07-28T03:31:34;97652.06;;;30.14;100.00
31225;BME280;17847;31.524;74.366;2023-07-28T03:34:05;97650.22;;;30.18;100.00
31225;BME280;17847;31.524;74.366;2023-07-28T03:36:36;97649.69;;;30.41;100.00
31225;BME280;17847;31.524;74.366;2023-07-28T03:39:05;97657.75;;;30.61;100.00
31225;BME280;17847;31.524;74.366;2023-07-28T03:41:35;97651.47;;;30.89;100.00
31225;BME280;17847;31.524;74.366;2023-07-28T03:44:05;97661.13;;;31.14;100.00
31225;BME280;17847;31.524;74.366;2023-07-28T03:46:35;97660.97;;;30.79;100.00
31225;BME280;17847;31.524;74.366;2023-07-28T03:49:05;97656.28;;;31.23;100.00
31225;BME280;17847;31.524;74.366;2023-07-28T03:51:34;97657.59;;;31.29;100.00
31225;BME280;17847;31.524;74.366;2023-07-28T03:54:04;97646.56;;;31.57;99.88
31225;BME280;17847;31.524;74.366;2023-07-28T03:56:33;97652.19;;;31.95;98.50
31225;BME280;17847;31.524;74.366;2023-07-28T03:59:04;97650.09;;;31.57;92.98
31225;BME280;17847;31.524;74.366;2023-07-28T04:01:34;97653.31;;;31.94;92.38
31225;BME280;17847;31.524;74.366;2023-07-28T04:04:03;97651.69;;;32.09;93.02
31225;BME280;17847;31.524;74.366;2023-07-28T04:06:41;97654.38;;;32.25;89.15
31225;BME280;17847;31.524;74.366;2023-07-28T04:09:13;97657.28;;;32.51;90.32
31225;BME280;17847;31.524;74.366;2023-07-28T04:11:43;97650.78;;;32.05;90.61
31225;BME280;17847;31.524;74.366;2023-07-28T04:14:13;97655.50;;;32.39;89.53
31225;BME280;17847;31.524;74.366;2023-07-28T04:16:43;97659.88;;;32.44;87.21
31225;BME280;17847;31.524;74.366;2023-07-28T04:19:13;97664.50;;;32.78;86.57
31225;BME280;17847;31.524;74.366;2023-07-28T04:21:42;97663.53;;;32.90;84.78
31225;BME280;17847;31.524;74.366;2023-07-28T04:24:11;97661.22;;;32.53;83.29
31225;BME280;17847;31.524;74.366;2023-07-28T04:26:46;97654.66;;;32.58;83.93
31225;BME280;17847;31.524;74.366;2023-07-28T04:29:19;97658.59;;;32.76;88.35
31225;BME280;17847;31.524;74.366;2023-07-28T04:31:48;97663.28;;;32.76;89.14
31225;BME280;17847;31.524;74.366;2023-07-28T04:34:26;97655.91;;;32.61;87.15
31225;BME280;17847;31.524;74.366;2023-07-28T04:37:21;97646.28;;;32.89;90.07
31225;BME280;17847;31.524;74.366;2023-07-28T04:40:02;97645.50;;;33.12;88.67
31225;BME280;17847;31.524;74.366;2023-07-28T04:42:36;97642.75;;;33.12;86.98
31225;BME280;17847;31.524;74.366;2023-07-28T04:45:07;97651.66;;;33.51;86.27
31225;BME280;17847;31.524;74.366;2023-07-28T04:47:38;97647.19;;;33.65;82.85
31225;BME280;17847;31.524;74.366;2023-07-28T04:50:09;97637.53;;;33.26;85.12
31225;BME280;17847;31.524;74.366;2023-07-28T04:53:07;97646.47;;;33.68;88.64
31225;BME280;17847;31.524;74.366;2023-07-28T04:55:56;97655.16;;;33.70;84.80
31225;BME280;17847;31.524;74.366;2023-07-28T04:58:25;97650.19;;;33.79;84.22
31225;BME280;17847;31.524;74.366;2023-07-28T05:00:54;97660.09;;;33.61;82.90
31225;BME280;17847;31.524;74.366;2023-07-28T05:03:24;97657.81;;;33.18;88.48
31225;BME280;17847;31.524;74.366;2023-07-28T05:05:58;97657.13;;;32.82;89.11
31225;BME280;17847;31.524;74.366;2023-07-28T05:08:27;97656.25;;;32.59;90.71
31225;BME280;17847;31.524;74.366;2023-07-28T05:10:56;97653.72;;;32.66;91.35
31225;BME280;17847;31.524;74.366;2023-07-28T05:13:29;97660.63;;;32.79;90.92
31225;BME280;17847;31.524;74.366;2023-07-28T05:15:58;97650.84;;;33.24;88.21
31225;BME280;17847;31.524;74.366;2023-07-28T05:18:54;97650.53;;;33.29;86.83
31225;BME280;17847;31.524;74.366;2023-07-28T05:21:42;97647.19;;;33.65;84.50
31225;BME280;17847;31.524;74.366;2023-07-28T05:24:14;97655.31;;;33.81;81.85
31225;BME280;17847;31.524;74.366;2023-07-28T05:26:43;97650.19;;;33.79;85.38
31225;BME280;17847;31.524;74.366;2023-07-28T05:29:13;97647.56;;;33.64;83.55
31225;BME280;17847;31.524;74.366;2023-07-28T05:31:46;97656.13;;;33.59;82.41
31225;BME280;17847;31.524;74.366;2023-07-28T05:34:29;97646.69;;;33.82;80.88
31225;BME280;17847;31.524;74.366;2023-07-28T05:36:59;97649.03;;;33.80;81.92
31225;BME280;17847;31.524;74.366;2023-07-28T05:39:32;97650.19;;;33.79;83.95
31225;BME280;17847;31.524;74.366;2023-07-28T05:42:01;97648.53;;;34.01;81.94
31225;BME280;17847;31.524;74.366;2023-07-28T05:44:34;97645.34;;;33.99;83.75
31225;BME280;17847;31.524;74.366;2023-07-28T05:47:03;97651.75;;;34.07;85.90
31225;BME280;17847;31.524;74.366;2023-07-28T05:49:34;97649.56;;;33.90;85.18
31225;BME280;17847;31.524;74.366;2023-07-28T05:52:03;97652.38;;;33.67;81.22
31225;BME280;17847;31.524;74.366;2023-07-28T05:54:33;97658.00;;;33.77;82.50
31225;BME280;17847;31.524;74.366;2023-07-28T05:57:02;97645.75;;;33.71;80.96
31225;BME280;17847;31.524;74.366;2023-07-28T05:59:31;97646.53;;;33.98;84.42
31225;BME280;17847;31.524;74.366;2023-07-28T06:02:01;97643.69;;;33.91;83.61
31225;BME280;17847;31.524;74.366;2023-07-28T06:04:42;97641.41;;;33.97;81.52
31225;BME280;17847;31.524;74.366;2023-07-28T06:07:12;97645.09;;;34.08;83.98
31225;BME280;17847;31.524;74.366;2023-07-28T06:09:42;97645.28;;;33.92;81.90
31225;BME280;17847;31.524;74.366;2023-07-28T06:12:11;97642.75;;;34.10;84.85
31225;BME280;17847;31.524;74.366;2023-07-28T06:14:42;97639.47;;;34.27;84.86
31225;BME280;17847;31.524;74.366;2023-07-28T06:17:12;97639.22;;;34.09;82.62
31225;BME280;17847;31.524;74.366;2023-07-28T06:19:42;97641.03;;;33.98;81.59
31225;BME280;17847;31.524;74.366;2023-07-28T06:22:12;97644.09;;;34.19;82.48
31225;BME280;17847;31.524;74.366;2023-07-28T06:24:44;97644.66;;;34.32;85.91
31225;BME280;17847;31.524;74.366;2023-07-28T06:27:13;97642.28;;;34.31;84.04
31225;BME280;17847;31.524;74.366;2023-07-28T06:29:42;97645.00;;;34.01;80.27
31225;BME280;17847;31.524;74.366;2023-07-28T06:32:12;97631.00;;;33.83;82.02
31225;BME280;17847;31.524;74.366;2023-07-28T06:34:41;97636.97;;;33.89;82.09
31225;BME280;17847;31.524;74.366;2023-07-28T06:37:11;97632.94;;;33.56;86.77
31225;BME280;17847;31.524;74.366;2023-07-28T06:39:41;97632.97;;;33.33;84.17
31225;BME280;17847;31.524;74.366;2023-07-28T06:42:11;97633.63;;;33.50;80.53
31225;BME280;17847;31.524;74.366;2023-07-28T06:44:43;97637.28;;;33.83;84.84
31225;BME280;17847;31.524;74.366;2023-07-28T06:47:12;97624.09;;;33.93;85.20
31225;BME280;17847;31.524;74.366;2023-07-28T06:49:42;97626.31;;;34.13;88.02
31225;BME280;17847;31.524;74.366;2023-07-28T06:52:15;97616.97;;;34.18;84.51
31225;BME280;17847;31.524;74.366;2023-07-28T06:54:44;97616.38;;;34.32;82.23
31225;BME280;17847;31.524;74.366;2023-07-28T06:57:16;97611.97;;;33.97;81.02
31225;BME280;17847;31.524;74.366;2023-07-28T06:59:47;97604.31;;;33.83;83.00
31225;BME280;17847;31.524;74.366;2023-07-28T07:02:17;97601.75;;;33.94;85.62
31225;BME280;17847;31.524;74.366;2023-07-28T07:04:46;97600.47;;;34.18;88.36
31225;BME280;17847;31.524;74.366;2023-07-28T07:07:16;97603.25;;;33.92;82.61
31225;BME280;17847;31.524;74.366;2023-07-28T07:09:46;97592.09;;;34.07;83.63
31225;BME280;17847;31.524;74.366;2023-07-28T07:12:15;97580.63;;;34.32;85.97
31225;BME280;17847;31.524;74.366;2023-07-28T07:14:45;97588.56;;;34.07;84.50
31225;BME280;17847;31.524;74.366;2023-07-28T07:17:14;97580.91;;;34.23;85.34
31225;BME280;17847;31.524;74.366;2023-07-28T07:19:44;97563.13;;;34.47;85.00
31225;BME280;17847;31.524;74.366;2023-07-28T07:22:13;97567.06;;;33.86;82.00
31225;BME280;17847;31.524;74.366;2023-07-28T07:24:42;97562.00;;;33.88;85.09
31225;BME280;17847;31.524;74.366;2023-07-28T07:27:12;97560.84;;;33.89;80.86
31225;BME280;17847;31.524;74.366;2023-07-28T07:29:41;97559.81;;;34.01;84.51
31225;BME280;17847;31.524;74.366;2023-07-28T07:32:10;97555.59;;;34.10;82.56
31225;BME280;17847;31.524;74.366;2023-07-28T07:34:40;97553.50;;;34.30;83.50
31225;BME280;17847;31.524;74.366;2023-07-28T07:37:10;97562.66;;;34.08;79.71
31225;BME280;17847;31.524;74.366;2023-07-28T07:39:39;97547.59;;;34.28;83.40
31225;BME280;17847;31.524;74.366;2023-07-28T07:42:10;97551.47;;;34.23;80.59
31225;BME280;17847;31.524;74.366;2023-07-28T07:44:43;97535.00;;;34.27;83.05
31225;BME280;17847;31.524;74.366;2023-07-28T07:47:15;97529.81;;;34.18;82.09
31225;BME280;17847;31.524;74.366;2023-07-28T07:49:45;97521.38;;;34.04;83.30
31225;BME280;17847;31.524;74.366;2023-07-28T07:52:14;97519.66;;;33.93;80.98
31225;BME280;17847;31.524;74.366;2023-07-28T07:54:44;97520.06;;;33.95;82.93
31225;BME280;17847;31.524;74.366;2023-07-28T07:57:13;97513.66;;;33.54;86.46
31225;BME280;17847;31.524;74.366;2023-07-28T07:59:43;97507.78;;;33.29;85.72
31225;BME280;17847;31.524;74.366;2023-07-28T08:02:12;97505.47;;;33.31;85.86
31225;BME280;17847;31.524;74.366;2023-07-28T08:04:41;97502.22;;;32.99;85.75
31225;BME280;17847;31.524;74.366;2023-07-28T08:07:12;97492.97;;;32.84;85.58
31225;BME280;17847;31.524;74.366;2023-07-28T08:09:42;97487.47;;;32.84;89.82
31225;BME280;17847;31.524;74.366;2023-07-28T08:12:13;97489.66;;;32.98;92.11
31225;BME280;17847;31.524;74.366;2023-07-28T08:14:44;97476.91;;;33.09;89.72
31225;BME280;17847;31.524;74.366;2023-07-28T08:17:15;97474.06;;;33.28;87.23
31225;BME280;17847;31.524;74.366;2023-07-28T08:19:44;97469.03;;;33.34;85.50
31225;BME280;17847;31.524;74.366;2023-07-28T08:22:13;97469.50;;;33.39;82.92
31225;BME280;17847;31.524;74.366;2023-07-28T08:24:42;97468.59;;;33.58;83.70
31225;BME280;17847;31.524;74.366;2023-07-28T08:27:12;97455.41;;;33.67;85.21
31225;BME280;17847;31.524;74.366;2023-07-28T08:29:42;97464.66;;;33.59;83.77
31225;BME280;17847;31.524;74.366;2023-07-28T08:32:11;97455.75;;;33.66;84.17
31225;BME280;17847;31.524;74.366;2023-07-28T08:34:41;97445.25;;;33.71;83.38
31225;BME280;17847;31.524;74.366;2023-07-28T08:37:10;97438.38;;;33.58;79.87
31225;BME280;17847;31.524;74.366;2023-07-28T08:39:44;97429.41;;;33.65;80.24
31225;BME280;17847;31.524;74.366;2023-07-28T08:42:14;97436.88;;;33.64;80.77
31225;BME280;17847;31.524;74.366;2023-07-28T08:44:45;97431.69;;;33.59;80.36
31225;BME280;17847;31.524;74.366;2023-07-28T08:47:16;97416.84;;;33.64;80.10
31225;BME280;17847;31.524;74.366;2023-07-28T08:49:45;97433.03;;;33.39;76.21
31225;BME280;17847;31.524;74.366;2023-07-28T08:52:17;97417.81;;;33.45;77.98
31225;BME280;17847;31.524;74.366;2023-07-28T08:54:47;97420.59;;;33.49;78.37
31225;BME280;17847;31.524;74.366;2023-07-28T08:57:17;97419.31;;;33.39;82.73
31225;BME280;17847;31.524;74.366;2023-07-28T08:59:48;97427.63;;;33.46;83.37
31225;BME280;17847;31.524;74.366;2023-07-28T09:02:19;97422.03;;;33.69;85.73
31225;BME280;17847;31.524;74.366;2023-07-28T09:04:49;97414.69;;;33.76;83.43
31225;BME280;17847;31.524;74.366;2023-07-28T09:07:19;97409.41;;;33.64;83.88
31225;BME280;17847;31.524;74.366;2023-07-28T09:09:48;97411.06;;;33.69;82.67
31225;BME280;17847;31.524;74.366;2023-07-28T09:12:18;97398.16;;;33.73;82.89
31225;BME280;17847;31.524;74.366;2023-07-28T09:14:56;97392.44;;;33.55;81.94
31225;BME280;17847;31.524;74.366;2023-07-28T09:17:26;97396.06;;;33.63;84.32
31225;BME280;17847;31.524;74.366;2023-07-28T09:19:56;97388.41;;;33.46;84.41
31225;BME280;17847;31.524;74.366;2023-07-28T09:22:26;97375.38;;;33.09;91.99
31225;BME280;17847;31.524;74.366;2023-07-28T09:25:12;97376.59;;;32.85;96.11
31225;BME280;17847;31.524;74.366;2023-07-28T09:27:51;97379.94;;;32.72;96.43
31225;BME280;17847;31.524;74.366;2023-07-28T09:30:22;97374.00;;;32.66;96.22
31225;BME280;17847;31.524;74.366;2023-07-28T09:32:54;97376.22;;;32.61;96.23
31225;BME280;17847;31.524;74.366;2023-07-28T09:35:24;97370.59;;;32.53;97.15
31225;BME280;17847;31.524;74.366;2023-07-28T09:37:54;97371.81;;;32.30;96.46
31225;BME280;17847;31.524;74.366;2023-07-28T09:40:25;97366.34;;;32.30;96.75
31225;BME280;17847;31.524;74.366;2023-07-28T09:42:56;97371.06;;;32.33;97.38
31225;BME280;17847;31.524;74.366;2023-07-28T09:45:26;97365.50;;;32.26;94.25
31225;BME280;17847;31.524;74.366;2023-07-28T09:48:06;97352.09;;;32.21;95.65
31225;BME280;17847;31.524;74.366;2023-07-28T09:50:39;97348.34;;;32.32;97.99
31225;BME280;17847;31.524;74.366;2023-07-28T09:53:11;97348.34;;;32.32;97.37
31225;BME280;17847;31.524;74.366;2023-07-28T09:55:42;97347.75;;;32.42;97.26
31225;BME280;17847;31.524;74.366;2023-07-28T09:58:16;97341.69;;;32.56;95.84
31225;BME280;17847;31.524;74.366;2023-07-28T10:00:47;97348.44;;;32.62;95.20
31225;BME280;17847;31.524;74.366;2023-07-28T10:03:18;97346.13;;;32.64;93.17
31225;BME280;17847;31.524;74.366;2023-07-28T10:05:51;97345.03;;;32.69;93.00
31225;BME280;17847;31.524;74.366;2023-07-28T10:08:21;97341.97;;;32.74;92.47
31225;BME280;17847;31.524;74.366;2023-07-28T10:10:53;97340.03;;;32.74;94.48
31225;BME280;17847;31.524;74.366;2023-07-28T10:13:25;97343.47;;;32.71;94.56
31225;BME280;17847;31.524;74.366;2023-07-28T10:16:01;97327.94;;;32.79;95.97
31225;BME280;17847;31.524;74.366;2023-07-28T10:18:31;97334.38;;;32.93;96.04
31225;BME280;17847;31.524;74.366;2023-07-28T10:21:16;97333.97;;;32.91;90.70
31225;BME280;17847;31.524;74.366;2023-07-28T10:23:54;97325.84;;;32.98;92.28
31225;BME280;17847;31.524;74.366;2023-07-28T10:26:35;97324.88;;;32.84;90.05
31225;BME280;17847;31.524;74.366;2023-07-28T10:29:12;97327.50;;;32.77;92.44
31225;BME280;17847;31.524;74.366;2023-07-28T10:31:54;97319.78;;;32.60;94.60
31225;BME280;17847;31.524;74.366;2023-07-28T10:34:28;97320.63;;;32.37;97.23
31225;BME280;17847;31.524;74.366;2023-07-28T10:37:00;97319.63;;;32.23;96.64
31225;BME280;17847;31.524;74.366;2023-07-28T10:39:30;97315.56;;;32.13;98.29
31225;BME280;17847;31.524;74.366;2023-07-28T10:42:06;97296.31;;;32.09;99.80
31225;BME280;17847;31.524;74.366;2023-07-28T10:44:38;97299.75;;;32.06;100.00
31225;BME280;17847;31.524;74.366;2023-07-28T10:47:11;97307.03;;;31.95;100.00
31225;BME280;17847;31.524;74.366;2023-07-28T10:49:41;97294.34;;;31.87;100.00
31225;BME280;17847;31.524;74.366;2023-07-28T10:52:15;97289.00;;;31.72;100.00
31225;BME280;17847;31.524;74.366;2023-07-28T10:54:45;97296.00;;;31.69;100.00
31225;BME280;17847;31.524;74.366;2023-07-28T10:57:17;97287.00;;;31.69;100.00
31225;BME280;17847;31.524;74.366;2023-07-28T10:59:46;97272.88;;;31.47;100.00
31225;BME280;17847;31.524;74.366;2023-07-28T11:02:16;97268.44;;;31.39;100.00
31225;BME280;17847;31.524;74.366;2023-07-28T11:04:46;97281.44;;;31.23;100.00
31225;BME280;17847;31.524;74.366;2023-07-28T11:07:16;97278.00;;;31.07;100.00
31225;BME280;17847;31.524;74.366;2023-07-28T11:09:46;97272.34;;;31.00;100.00
31225;BME280;17847;31.524;74.366;2023-07-28T11:12:17;97265.22;;;30.95;100.00
31225;BME280;17847;31.524;74.366;2023-07-28T11:14:47;97274.44;;;30.87;100.00
31225;BME280;17847;31.524;74.366;2023-07-28T11:17:19;97266.38;;;30.94;100.00
31225;BME280;17847;31.524;74.366;2023-07-28T11:19:51;97255.66;;;30.86;100.00
31225;BME280;17847;31.524;74.366;2023-07-28T11:22:21;97238.47;;;30.66;100.00
31225;BME280;17847;31.524;74.366;2023-07-28T11:24:51;97228.81;;;30.53;100.00
31225;BME280;17847;31.524;74.366;2023-07-28T11:27:22;97232.84;;;30.59;100.00
31225;BME280;17847;31.524;74.366;2023-07-28T11:29:55;97231.47;;;30.68;100.00
31225;BME280;17847;31.524;74.366;2023-07-28T11:32:26;97243.13;;;30.65;100.00
31225;BME280;17847;31.524;74.366;2023-07-28T11:35:06;97238.81;;;30.64;100.00
31225;BME280;17847;31.524;74.366;2023-07-28T11:37:42;97245.00;;;30.61;100.00
31225;BME280;17847;31.524;74.366;2023-07-28T11:40:17;97243.06;;;30.62;100.00
31225;BME280;17847;31.524;74.366;2023-07-28T11:42:52;97240.69;;;30.60;100.00
31225;BME280;17847;31.524;74.366;2023-07-28T11:45:22;97231.97;;;30.55;100.00
31225;BME280;17847;31.524;74.366;2023-07-28T11:47:56;97237.22;;;30.63;100.00
31225;BME280;17847;31.524;74.366;2023-07-28T11:50:44;97239.75;;;30.72;100.00
31225;BME280;17847;31.524;74.366;2023-07-28T11:53:17;97236.59;;;30.70;100.00
31225;BME280;17847;31.524;74.366;2023-07-28T11:55:47;97232.94;;;30.62;100.00
31225;BME280;17847;31.524;74.366;2023-07-28T11:58:19;97229.81;;;30.64;100.00
31225;BME280;17847;31.524;74.366;2023-07-28T12:00:51;97229.41;;;30.62;100.00
31225;BME280;17847;31.524;74.366;2023-07-28T12:03:30;97233.69;;;30.63;100.00
31225;BME280;17847;31.524;74.366;2023-07-28T12:06:07;97240.69;;;30.60;100.00
31225;BME280;17847;31.524;74.366;2023-07-28T12:09:06;97262.41;;;30.53;100.00
31225;BME280;17847;31.524;74.366;2023-07-28T12:11:42;97259.38;;;30.58;100.00
31225;BME280;17847;31.524;74.366;2023-07-28T12:14:15;97252.69;;;30.56;100.00
31225;BME280;17847;31.524;74.366;2023-07-28T12:16:48;97259.22;;;30.51;100.00
31225;BME280;17847;31.524;74.366;2023-07-28T12:19:20;97265.94;;;30.38;100.00
31225;BME280;17847;31.524;74.366;2023-07-28T12:21:50;97263.94;;;30.35;100.00
31225;BME280;17847;31.524;74.366;2023-07-28T12:24:20;97265.41;;;30.32;100.00
31225;BME280;17847;31.524;74.366;2023-07-28T12:26:51;97260.22;;;30.27;100.00
31225;BME280;17847;31.524;74.366;2023-07-28T12:29:21;97254.34;;;30.25;100.00
31225;BME280;17847;31.524;74.366;2023-07-28T12:31:57;97249.41;;;30.15;100.00
31225;BME280;17847;31.524;74.366;2023-07-28T12:34:30;97253.72;;;30.16;100.00
31225;BME280;17847;31.524;74.366;2023-07-28T12:37:18;97261.28;;;30.23;100.00
31225;BME280;17847;31.524;74.366;2023-07-28T12:40:08;97260.06;;;30.20;100.00
31225;BME280;17847;31.524;74.366;2023-07-28T12:43:01;97256.38;;;30.13;100.00
31225;BME280;17847;31.524;74.366;2023-07-28T12:45:33;97260.59;;;30.10;100.00
31225;BME280;17847;31.524;74.366;2023-07-28T12:48:05;97261.66;;;30.06;100.00
31225;BME280;17847;31.524;74.366;2023-07-28T12:50:47;97253.56;;;30.09;100.00
31225;BME280;17847;31.524;74.366;2023-07-28T12:53:17;97267.38;;;30.16;100.00
31225;BME280;17847;31.524;74.366;2023-07-28T12:55:50;97270.47;;;30.15;100.00
31225;BME280;17847;31.524;74.366;2023-07-28T12:58:23;97281.31;;;30.11;100.00
31225;BME280;17847;31.524;74.366;2023-07-28T13:00:55;97295.16;;;30.03;100.00
31225;BME280;17847;31.524;74.366;2023-07-28T13:03:30;97298.94;;;29.98;100.00
31225;BME280;17847;31.524;74.366;2023-07-28T13:05:59;97291.19;;;30.00;100.00
31225;BME280;17847;31.524;74.366;2023-07-28T13:08:30;97294.44;;;30.06;100.00